Time;durP1;ratioP1;P1;durP2;ratioP2;P2;SDS_P1;SDS_P2;PMS_P1;PMS_P2;Temp;Humidity;BMP_temperature;BMP_pressure;BME280_temperature;BME280_humidity;BME280_pressure;Samples;Min_cycle;Max_cycle;Signal;HPM_P1;HPM_P2
2023/04/22 00:09:16;;;;;;;1.80;0.60;;;;;;;;;;20829864;28;20053;-64
2023/04/22 00:19:18;;;;;;;2.72;0.80;;;;;;;;;;20829360;28;20054;-64
2023/04/22 00:29:19;;;;;;;2.95;1.25;;;;;;;;;;20831350;28;20517;-64
2023/04/22 00:39:21;;;;;;;2.25;0.50;;;;;;;;;;20831319;28;20041;-64
2023/04/22 00:49:24;;;;;;;5.38;0.75;;;;;;;;;;20830133;28;20068;-64
2023/04/22 00:59:26;;;;;;;2.45;0.70;;;;;;;;;;20830872;28;20053;-64
2023/04/22 01:09:28;;;;;;;2.60;0.60;;;;;;;;;;20829299;28;20056;-64
2023/04/22 01:19:31;;;;;;;0.75;0.40;;;;;;;;;;20828039;28;20108;-64
2023/04/22 01:29:33;;;;;;;1.17;0.47;;;;;;;;;;20830924;28;20143;-63
2023/04/22 01:39:35;;;;;;;0.38;0.28;;;;;;;;;;20843249;28;20164;-63
2023/04/22 01:49:36;;;;;;;0.73;0.40;;;;;;;;;;20843752;28;20049;-64
2023/04/22 01:59:38;;;;;;;1.02;0.45;;;;;;;;;;20843085;28;20050;-63
2023/04/22 02:09:40;;;;;;;0.65;0.30;;;;;;;;;;20841139;28;20076;-64
2023/04/22 02:19:41;;;;;;;1.95;0.45;;;;;;;;;;20840605;28;20183;-63
2023/04/22 02:29:43;;;;;;;1.08;0.50;;;;;;;;;;20840811;28;20379;-64
2023/04/22 02:39:45;;;;;;;1.27;0.55;;;;;;;;;;20839460;28;20048;-63
2023/04/22 02:49:46;;;;;;;0.50;0.30;;;;;;;;;;20838978;28;20049;-64
2023/04/22 02:59:48;;;;;;;1.10;0.40;;;;;;;;;;20837034;28;20049;-64
2023/04/22 03:09:50;;;;;;;1.05;0.50;;;;;;;;;;20836240;28;20057;-63
2023/04/22 03:19:52;;;;;;;1.45;0.40;;;;;;;;;;20836017;28;20065;-64
2023/04/22 03:29:53;;;;;;;1.08;0.38;;;;;;;;;;20836176;28;20050;-63
2023/04/22 03:39:55;;;;;;;1.55;0.50;;;;;;;;;;20833797;28;20065;-64
2023/04/22 03:49:57;;;;;;;0.98;0.40;;;;;;;;;;20833232;28;20057;-63
2023/04/22 03:59:58;;;;;;;3.63;0.50;;;;;;;;;;20833146;28;20041;-64
2023/04/22 04:10:00;;;;;;;0.50;0.22;;;;;;;;;;20831888;28;20049;-65
2023/04/22 04:20:02;;;;;;;1.67;0.22;;;;;;;;;;20831849;28;20057;-63
2023/04/22 04:30:04;;;;;;;0.88;0.30;;;;;;;;;;20832025;28;20041;-63
2023/04/22 04:40:09;;;;;;;0.80;0.30;;;;;;;;;;20831764;28;20096;-63
2023/04/22 04:50:11;;;;;;;0.88;0.30;;;;;;;;;;20831338;28;20057;-64
2023/04/22 05:00:13;;;;;;;0.60;0.40;;;;;;;;;;20829456;28;20054;-63
2023/04/22 05:10:15;;;;;;;0.63;0.30;;;;;;;;;;20842657;28;20466;-63
2023/04/22 05:20:17;;;;;;;2.22;0.60;;;;;;;;;;20846203;28;20445;-64
2023/04/22 05:30:18;;;;;;;2.03;0.57;;;;;;;;;;20845145;28;20057;-63
2023/04/22 05:40:20;;;;;;;0.95;0.30;;;;;;;;;;20844460;28;20077;-63
2023/04/22 05:50:22;;;;;;;2.28;0.47;;;;;;;;;;20843381;28;20053;-63
2023/04/22 06:00:24;;;;;;;3.72;0.43;;;;;;;;;;20841559;28;20073;-63
2023/04/22 06:10:26;;;;;;;4.03;0.57;;;;;;;;;;20842218;28;20052;-63
2023/04/22 06:20:27;;;;;;;3.88;0.90;;;;;;;;;;20839901;28;20053;-63
2023/04/22 06:30:29;;;;;;;2.70;1.15;;;;;;;;;;20840411;28;20054;-64
2023/04/22 06:40:31;;;;;;;3.65;0.80;;;;;;;;;;20839628;28;20461;-63
2023/04/22 06:50:33;;;;;;;1.63;0.60;;;;;;;;;;20839043;28;20084;-63
2023/04/22 07:00:35;;;;;;;2.08;0.57;;;;;;;;;;20836922;28;20045;-63
2023/04/22 07:10:36;;;;;;;3.35;1.17;;;;;;;;;;20837323;28;20468;-64
2023/04/22 07:20:38;;;;;;;2.80;0.88;;;;;;;;;;20837005;28;20065;-63
2023/04/22 07:30:40;;;;;;;2.38;1.40;;;;;;;;;;20834570;28;20061;-64
2023/04/22 07:40:42;;;;;;;2.53;0.70;;;;;;;;;;20834869;28;20046;-63
2023/04/22 07:50:44;;;;;;;1.75;0.55;;;;;;;;;;20832304;28;20053;-64
2023/04/22 08:00:46;;;;;;;3.90;0.43;;;;;;;;;;20820717;28;20053;-61
2023/04/22 08:10:47;;;;;;;0.95;0.40;;;;;;;;;;20827237;28;20458;-62
2023/04/22 08:20:50;;;;;;;0.65;0.38;;;;;;;;;;20827789;28;20053;-62
2023/04/22 08:30:51;;;;;;;0.47;0.20;;;;;;;;;;20829465;28;20056;-62
2023/04/22 08:40:55;;;;;;;0.93;0.40;;;;;;;;;;20840374;28;20380;-61
2023/04/22 08:50:57;;;;;;;0.90;0.50;;;;;;;;;;20857653;28;20434;-62
2023/04/22 09:00:59;;;;;;;1.35;0.50;;;;;;;;;;20858352;28;20054;-63
2023/04/22 09:11:02;;;;;;;2.72;0.63;;;;;;;;;;20857903;28;20049;-63
2023/04/22 09:21:04;;;;;;;1.73;0.55;;;;;;;;;;20856270;28;20068;-62
2023/04/22 09:31:06;;;;;;;1.90;0.63;;;;;;;;;;20857136;28;20056;-62
2023/04/22 09:41:11;;;;;;;0.55;0.52;;;;;;;;;;20856260;28;20449;-62
2023/04/22 09:51:16;;;;;;;4.53;1.10;;;;;;;;;;20851136;28;20107;-62
2023/04/22 10:01:18;;;;;;;0.43;0.30;;;;;;;;;;20842677;28;20045;-62
2023/04/22 10:11:21;;;;;;;2.67;0.60;;;;;;;;;;20841747;28;20383;-62
2023/04/22 10:21:25;;;;;;;4.03;0.60;;;;;;;;;;20838925;28;20061;-62
2023/04/22 10:31:27;;;;;;;1.23;0.50;;;;;;;;;;20840054;28;20053;-62
2023/04/22 10:41:29;;;;;;;0.70;0.30;;;;;;;;;;20839420;28;20046;-63
2023/04/22 10:52:02;;;;;;;1.42;0.50;;;;;;;;;;20836824;28;20042;-62
2023/04/22 11:02:08;;;;;;;1.05;0.50;;;;;;;;;;20824708;28;20384;-63
2023/04/22 11:12:29;;;;;;;2.72;0.20;;;;;;;;;;20836872;28;20049;-63
2023/04/22 11:22:42;;;;;;;2.30;1.20;;;;;;;;;;20834124;28;20057;-63
2023/04/22 11:32:52;;;;;;;1.63;0.35;;;;;;;;;;20834872;28;20050;-63
2023/04/22 11:42:54;;;;;;;3.90;2.05;;;;;;;;;;20834897;28;20072;-63
2023/04/22 11:52:56;;;;;;;1.15;0.20;;;;;;;;;;20833698;28;20049;-63
2023/04/22 12:02:59;;;;;;;0.65;0.47;;;;;;;;;;20832676;28;20411;-64
2023/04/22 12:13:01;;;;;;;2.42;0.82;;;;;;;;;;20831723;28;20048;-63
2023/04/22 12:23:04;;;;;;;1.73;0.65;;;;;;;;;;20831147;28;20053;-64
2023/04/22 12:33:05;;;;;;;1.73;0.90;;;;;;;;;;20830483;28;20083;-63
2023/04/22 12:43:07;;;;;;;3.10;0.68;;;;;;;;;;20830924;28;20073;-62
2023/04/22 12:53:09;;;;;;;2.30;0.70;;;;;;;;;;20830681;28;20064;-63
2023/04/22 13:03:11;;;;;;;2.97;1.80;;;;;;;;;;20828940;28;20103;-63
2023/04/22 13:13:13;;;;;;;4.07;1.63;;;;;;;;;;20829086;28;20057;-63
2023/04/22 13:23:15;;;;;;;2.13;0.80;;;;;;;;;;20828580;28;20076;-64
2023/04/22 13:33:17;;;;;;;0.65;0.30;;;;;;;;;;20843024;28;20057;-63
2023/04/22 13:43:19;;;;;;;1.73;0.90;;;;;;;;;;20842837;28;20054;-62
2023/04/22 13:53:21;;;;;;;5.78;0.65;;;;;;;;;;20843478;28;20479;-64
2023/04/22 14:03:22;;;;;;;3.63;0.52;;;;;;;;;;20842006;28;20052;-63
2023/04/22 14:13:26;;;;;;;1.23;0.28;;;;;;;;;;20841165;28;20479;-62
2023/04/22 14:23:27;;;;;;;2.30;0.45;;;;;;;;;;20840190;28;20475;-62
2023/04/22 14:33:30;;;;;;;1.25;0.30;;;;;;;;;;20840015;28;20435;-62
2023/04/22 14:43:32;;;;;;;1.98;0.43;;;;;;;;;;20838990;28;20446;-65
2023/04/22 14:53:34;;;;;;;2.03;0.50;;;;;;;;;;20839583;28;20479;-69
2023/04/22 15:03:36;;;;;;;10.32;0.60;;;;;;;;;;20837231;28;20045;-66
2023/04/22 15:13:38;;;;;;;2.13;0.60;;;;;;;;;;20837134;28;20060;-62
2023/04/22 15:23:40;;;;;;;1.90;0.60;;;;;;;;;;20835011;28;20053;-63
2023/04/22 15:33:42;;;;;;;2.88;1.05;;;;;;;;;;20835303;28;20478;-63
2023/04/22 15:43:43;;;;;;;0.50;0.30;;;;;;;;;;20834645;28;20483;-63
2023/04/22 15:53:45;;;;;;;2.05;0.40;;;;;;;;;;20831206;28;20054;-64
2023/04/22 16:03:48;;;;;;;1.17;0.35;;;;;;;;;;20833009;28;20484;-62
2023/04/22 16:13:49;;;;;;;1.92;0.60;;;;;;;;;;20831483;28;20049;-63
2023/04/22 16:23:51;;;;;;;1.30;0.70;;;;;;;;;;20832387;28;20061;-63
2023/04/22 16:33:53;;;;;;;2.85;1.17;;;;;;;;;;20831651;28;20103;-63
2023/04/22 16:43:55;;;;;;;3.50;1.02;;;;;;;;;;20831089;28;20046;-63
2023/04/22 16:53:56;;;;;;;2.17;0.60;;;;;;;;;;20830760;28;20050;-63
2023/04/22 17:03:58;;;;;;;1.20;0.60;;;;;;;;;;20839730;28;20047;-63
2023/04/22 17:14:00;;;;;;;1.15;0.52;;;;;;;;;;20846610;28;20475;-63
2023/04/22 17:24:03;;;;;;;3.45;1.65;;;;;;;;;;20846632;28;20135;-62
2023/04/22 17:34:05;;;;;;;7.45;4.45;;;;;;;;;;20845254;28;20414;-63
2023/04/22 17:44:07;;;;;;;8.15;4.90;;;;;;;;;;20844193;28;20050;-63
2023/04/22 17:54:09;;;;;;;4.30;2.78;;;;;;;;;;20843526;28;20129;-62
2023/04/22 18:04:11;;;;;;;2.30;1.65;;;;;;;;;;20841287;28;20053;-63
2023/04/22 18:14:13;;;;;;;2.72;1.05;;;;;;;;;;20838852;28;20046;-62
2023/04/22 18:24:15;;;;;;;4.53;0.60;;;;;;;;;;20839878;28;20108;-63
2023/04/22 18:34:17;;;;;;;1.10;0.55;;;;;;;;;;20839915;28;20050;-60
2023/04/22 18:44:19;;;;;;;7.55;0.93;;;;;;;;;;20837660;28;20065;-64
2023/04/22 18:54:21;;;;;;;8.82;0.73;;;;;;;;;;20837510;28;20453;-61
2023/04/22 19:04:23;;;;;;;2.25;0.60;;;;;;;;;;20836782;28;20052;-62
2023/04/22 19:14:25;;;;;;;3.38;1.00;;;;;;;;;;20836942;28;20053;-63
2023/04/22 19:24:32;;;;;;;1.77;0.63;;;;;;;;;;20835003;28;20061;-63
2023/04/22 19:34:33;;;;;;;3.58;0.50;;;;;;;;;;20835202;28;20045;-63
2023/04/22 19:44:35;;;;;;;2.53;0.80;;;;;;;;;;20834523;28;20041;-62
2023/04/22 19:54:40;;;;;;;2.40;0.85;;;;;;;;;;20833808;28;20407;-62
2023/04/22 20:04:42;;;;;;;3.33;1.20;;;;;;;;;;20832994;28;20077;-62
2023/04/22 20:14:45;;;;;;;3.65;1.83;;;;;;;;;;20832465;28;20050;-63
2023/04/22 20:24:47;;;;;;;5.05;1.50;;;;;;;;;;20830794;28;20054;-63
2023/04/22 20:34:49;;;;;;;3.72;1.50;;;;;;;;;;20830212;28;20052;-63
2023/04/22 20:44:51;;;;;;;3.00;1.20;;;;;;;;;;20829610;28;20075;-63
2023/04/22 20:54:55;;;;;;;4.75;1.15;;;;;;;;;;20830162;28;20398;-63
2023/04/22 21:04:57;;;;;;;2.83;1.20;;;;;;;;;;20828912;28;20076;-64
2023/04/22 21:14:59;;;;;;;3.50;1.20;;;;;;;;;;20830753;28;20054;-63
2023/04/22 21:25:01;;;;;;;2.75;1.25;;;;;;;;;;20828436;28;20072;-62
2023/04/22 21:35:03;;;;;;;2.45;1.00;;;;;;;;;;20828601;28;20093;-62
2023/04/22 21:45:05;;;;;;;2.05;0.90;;;;;;;;;;20829051;28;20050;-63
2023/04/22 21:55:07;;;;;;;3.53;1.20;;;;;;;;;;20843041;28;20045;-62
2023/04/22 22:05:09;;;;;;;2.03;0.80;;;;;;;;;;20842540;28;20099;-62
2023/04/22 22:15:11;;;;;;;4.22;1.70;;;;;;;;;;20842242;28;20407;-63
2023/04/22 22:25:14;;;;;;;7.50;2.88;;;;;;;;;;20840439;28;20522;-63
2023/04/22 22:35:16;;;;;;;2.47;1.05;;;;;;;;;;20839692;28;20065;-63
2023/04/22 22:45:18;;;;;;;5.68;0.88;;;;;;;;;;20839334;28;20045;-62
2023/04/22 22:55:19;;;;;;;3.08;1.20;;;;;;;;;;20837414;28;20056;-62
2023/04/22 23:05:21;;;;;;;2.22;0.57;;;;;;;;;;20837104;28;20045;-62
2023/04/22 23:15:23;;;;;;;3.28;0.75;;;;;;;;;;20837976;28;20046;-63
2023/04/22 23:25:25;;;;;;;2.30;1.20;;;;;;;;;;20835905;28;20049;-63
2023/04/22 23:35:27;;;;;;;5.28;1.40;;;;;;;;;;20836328;28;20475;-63
2023/04/22 23:45:29;;;;;;;2.97;0.93;;;;;;;;;;20834266;28;20053;-62
2023/04/22 23:55:31;;;;;;;3.50;1.05;;;;;;;;;;20834488;28;20057;-63
